Flight NumberIRM4592 Date10.02.2018
Departure AirportOIKB Arrival AirportOIII
Departure Time11.52Arrival Time13.25
Pilot In CommandMohammadSadegh Ghanaat Block Time1.60 Hours
Pilot Rating100 % AircraftEP-MND [ 747-300 ]


Distance571.00 Nm. Passengers460
Fuel Used17,409 Kg. Cargo18830 Kg
Expense Details Income Details
Fuel Cost14,951 v$Ticket Sales57,500 v$
Pilot Salary2,347 v$ Cargo income24,716.00 v$
Crew Salary2,300 v$ Bonus13,043 v$
Gross Profit75,913 v$ ( 75,913 v$ )

Client Versionv2.2.0.rc2 Max Simrate1
Flight Critique Pilot CommentsOIII 101230Z 27012KT 9999 FEW040 13/M06 Q1012 A2989 ---RADA2V --ILS29L

[ Back ]
FSA VA Integration Pack
Copyright © 2010 FSAirlines.net. Version : 0.1.1